Lhanbryd, United Kingdom
Current Conditions -  °F | °C
As of 11:50 AM on Monday 26 Jan 2015 (Local Time) from EGQS Reporting Station
Broken Clouds Broken Clouds  
Wind Chill: 31°   Ceiling: 2000
Heat Index: 39°   Visibility: 6mi
Dew Point: 34°   Wind: 15mph
Humidity: 81%   Direction: 260°W
Pressure: 29.97"   Gusts: NA
Location:  57.62°N, 3.22°W
Report Text: EGQS 261150Z 26013KT 9999 FEW015 BKN020 04/01 Q1015 WHT BECMG FEW020 BLU
Loading
Personal Weather Stations






























Interactive Weather Map New forecast layout! Learn more

10-Day Weather Forecast

Advertisements
Track Severe Weather on mobile